Terminal Aerodrome Forecast
Issued by NWS Pueblo, CO

Home | Current Version | Previous Version | Text Only | Print | Product List | Glossary On
Versions: 1 2 3 4 5 6 7 8 9 10 11 12 13 14 15 16 17 18 19 20 21 22 23 24 25
000
FTUS45 KPUB 160521
TAFCOS
TAF
KCOS 160521Z 1606/1706 15008KT 5SM BR OVC003
      TEMPO 1606/1610 3SM BR
     FM161100 36005KT P6SM FEW020 SCT110
     FM161800 13010KT P6SM FEW035 SCT100 SCT150=

USA.gov is the U.S. government's official web portal to all federal, state and local government web resources and services.